sensor_id;sensor_type;location;lat;lon;timestamp;P1;durP1;ratioP1;P2;durP2;ratioP2
23088;SDS011;11713;48.506;8.966;2023-04-23T00:00:53;4.37;;;2.50;;
23088;SDS011;11713;48.506;8.966;2023-04-23T00:03:23;4.23;;;2.80;;
23088;SDS011;11713;48.506;8.966;2023-04-23T00:05:51;3.70;;;2.97;;
23088;SDS011;11713;48.506;8.966;2023-04-23T00:08:17;4.97;;;2.87;;
23088;SDS011;11713;48.506;8.966;2023-04-23T00:10:43;5.33;;;2.70;;
23088;SDS011;11713;48.506;8.966;2023-04-23T00:13:10;4.53;;;2.87;;
23088;SDS011;11713;48.506;8.966;2023-04-23T00:15:36;4.00;;;3.00;;
23088;SDS011;11713;48.506;8.966;2023-04-23T00:18:02;3.63;;;3.23;;
23088;SDS011;11713;48.506;8.966;2023-04-23T00:20:28;3.97;;;2.80;;
23088;SDS011;11713;48.506;8.966;2023-04-23T00:22:54;3.40;;;2.80;;
23088;SDS011;11713;48.506;8.966;2023-04-23T00:48:22;8.83;;;3.00;;
23088;SDS011;11713;48.506;8.966;2023-04-23T00:52:27;3.10;;;2.50;;
23088;SDS011;11713;48.506;8.966;2023-04-23T00:54:54;3.77;;;2.57;;
23088;SDS011;11713;48.506;8.966;2023-04-23T00:57:20;4.37;;;3.10;;
23088;SDS011;11713;48.506;8.966;2023-04-23T00:59:48;3.70;;;2.80;;
23088;SDS011;11713;48.506;8.966;2023-04-23T01:02:15;3.37;;;2.83;;
23088;SDS011;11713;48.506;8.966;2023-04-23T01:04:42;3.50;;;2.53;;
23088;SDS011;11713;48.506;8.966;2023-04-23T01:07:12;3.93;;;2.80;;
23088;SDS011;11713;48.506;8.966;2023-04-23T01:09:38;5.10;;;3.13;;
23088;SDS011;11713;48.506;8.966;2023-04-23T01:12:05;6.47;;;3.13;;
23088;SDS011;11713;48.506;8.966;2023-04-23T01:14:31;5.87;;;2.87;;
23088;SDS011;11713;48.506;8.966;2023-04-23T01:16:58;5.33;;;2.70;;
23088;SDS011;11713;48.506;8.966;2023-04-23T01:19:25;4.77;;;2.50;;
23088;SDS011;11713;48.506;8.966;2023-04-23T01:21:51;3.80;;;1.90;;
23088;SDS011;11713;48.506;8.966;2023-04-23T01:24:18;2.17;;;1.90;;
23088;SDS011;11713;48.506;8.966;2023-04-23T01:26:44;3.83;;;2.00;;
23088;SDS011;11713;48.506;8.966;2023-04-23T01:29:10;2.07;;;1.47;;
23088;SDS011;11713;48.506;8.966;2023-04-23T01:31:36;1.77;;;1.30;;
23088;SDS011;11713;48.506;8.966;2023-04-23T01:34:02;2.37;;;1.60;;
23088;SDS011;11713;48.506;8.966;2023-04-23T01:36:28;1.53;;;1.43;;
23088;SDS011;11713;48.506;8.966;2023-04-23T01:38:55;2.10;;;1.20;;
23088;SDS011;11713;48.506;8.966;2023-04-23T01:41:21;1.43;;;1.10;;
23088;SDS011;11713;48.506;8.966;2023-04-23T01:43:48;1.97;;;1.20;;
23088;SDS011;11713;48.506;8.966;2023-04-23T01:46:15;1.20;;;1.10;;
23088;SDS011;11713;48.506;8.966;2023-04-23T01:48:41;2.67;;;1.30;;
23088;SDS011;11713;48.506;8.966;2023-04-23T01:51:07;1.40;;;1.30;;
23088;SDS011;11713;48.506;8.966;2023-04-23T01:53:33;1.30;;;1.20;;
23088;SDS011;11713;48.506;8.966;2023-04-23T01:56:00;1.30;;;1.10;;
23088;SDS011;11713;48.506;8.966;2023-04-23T01:58:27;2.37;;;1.30;;
23088;SDS011;11713;48.506;8.966;2023-04-23T02:00:53;2.10;;;1.10;;
23088;SDS011;11713;48.506;8.966;2023-04-23T02:03:18;1.73;;;1.33;;
23088;SDS011;11713;48.506;8.966;2023-04-23T02:05:44;2.07;;;1.10;;
23088;SDS011;11713;48.506;8.966;2023-04-23T02:08:10;1.83;;;1.20;;
23088;SDS011;11713;48.506;8.966;2023-04-23T02:10:36;2.47;;;1.30;;
23088;SDS011;11713;48.506;8.966;2023-04-23T02:13:02;2.17;;;1.70;;
23088;SDS011;11713;48.506;8.966;2023-04-23T02:15:29;2.40;;;2.20;;
23088;SDS011;11713;48.506;8.966;2023-04-23T02:17:54;2.07;;;1.93;;
23088;SDS011;11713;48.506;8.966;2023-04-23T02:20:20;1.80;;;1.70;;
23088;SDS011;11713;48.506;8.966;2023-04-23T02:22:47;1.43;;;1.33;;
23088;SDS011;11713;48.506;8.966;2023-04-23T02:25:14;2.20;;;1.30;;
23088;SDS011;11713;48.506;8.966;2023-04-23T02:27:41;1.93;;;1.20;;
23088;SDS011;11713;48.506;8.966;2023-04-23T02:30:08;1.40;;;1.30;;
23088;SDS011;11713;48.506;8.966;2023-04-23T02:32:35;1.40;;;1.30;;
23088;SDS011;11713;48.506;8.966;2023-04-23T02:35:02;2.00;;;1.40;;
23088;SDS011;11713;48.506;8.966;2023-04-23T02:37:31;1.50;;;1.40;;
23088;SDS011;11713;48.506;8.966;2023-04-23T02:39:57;2.10;;;1.20;;
23088;SDS011;11713;48.506;8.966;2023-04-23T02:42:23;1.77;;;1.00;;
23088;SDS011;11713;48.506;8.966;2023-04-23T02:44:50;2.37;;;1.10;;
23088;SDS011;11713;48.506;8.966;2023-04-23T02:47:16;2.07;;;1.30;;
23088;SDS011;11713;48.506;8.966;2023-04-23T02:49:42;1.63;;;1.40;;
23088;SDS011;11713;48.506;8.966;2023-04-23T02:52:08;1.67;;;1.27;;
23088;SDS011;11713;48.506;8.966;2023-04-23T02:54:34;1.60;;;1.20;;
23088;SDS011;11713;48.506;8.966;2023-04-23T02:57:01;2.07;;;1.40;;
23088;SDS011;11713;48.506;8.966;2023-04-23T02:59:28;1.40;;;1.30;;
23088;SDS011;11713;48.506;8.966;2023-04-23T03:01:54;1.40;;;1.30;;
23088;SDS011;11713;48.506;8.966;2023-04-23T03:04:20;1.47;;;1.37;;
23088;SDS011;11713;48.506;8.966;2023-04-23T03:06:48;1.80;;;1.33;;
23088;SDS011;11713;48.506;8.966;2023-04-23T03:09:14;1.40;;;1.30;;
23088;SDS011;11713;48.506;8.966;2023-04-23T03:11:40;1.63;;;1.40;;
23088;SDS011;11713;48.506;8.966;2023-04-23T03:14:07;2.57;;;1.33;;
23088;SDS011;11713;48.506;8.966;2023-04-23T03:16:33;1.83;;;1.30;;
23088;SDS011;11713;48.506;8.966;2023-04-23T03:18:59;1.50;;;1.40;;
23088;SDS011;11713;48.506;8.966;2023-04-23T03:21:25;2.70;;;1.50;;
23088;SDS011;11713;48.506;8.966;2023-04-23T03:23:51;2.33;;;1.57;;
23088;SDS011;11713;48.506;8.966;2023-04-23T03:26:17;1.90;;;1.33;;
23088;SDS011;11713;48.506;8.966;2023-04-23T03:28:43;1.63;;;1.50;;
23088;SDS011;11713;48.506;8.966;2023-04-23T03:31:09;1.87;;;1.70;;
23088;SDS011;11713;48.506;8.966;2023-04-23T03:33:35;2.00;;;1.80;;
23088;SDS011;11713;48.506;8.966;2023-04-23T03:36:01;2.97;;;1.70;;
23088;SDS011;11713;48.506;8.966;2023-04-23T03:38:30;1.77;;;1.50;;
23088;SDS011;11713;48.506;8.966;2023-04-23T03:40:57;1.70;;;1.57;;
23088;SDS011;11713;48.506;8.966;2023-04-23T03:43:23;1.50;;;1.40;;
23088;SDS011;11713;48.506;8.966;2023-04-23T03:46:02;1.60;;;1.50;;
23088;SDS011;11713;48.506;8.966;2023-04-23T03:48:30;2.23;;;2.03;;
23088;SDS011;11713;48.506;8.966;2023-04-23T03:50:58;2.10;;;1.87;;
23088;SDS011;11713;48.506;8.966;2023-04-23T03:53:35;2.10;;;1.93;;
23088;SDS011;11713;48.506;8.966;2023-04-23T03:56:24;2.80;;;1.93;;
23088;SDS011;11713;48.506;8.966;2023-04-23T03:59:05;4.90;;;2.40;;
23088;SDS011;11713;48.506;8.966;2023-04-23T04:01:31;4.67;;;3.20;;
23088;SDS011;11713;48.506;8.966;2023-04-23T04:04:00;2.50;;;2.30;;
23088;SDS011;11713;48.506;8.966;2023-04-23T04:06:26;3.13;;;2.37;;
23088;SDS011;11713;48.506;8.966;2023-04-23T04:08:54;2.07;;;1.87;;
23088;SDS011;11713;48.506;8.966;2023-04-23T04:11:21;2.73;;;2.13;;
23088;SDS011;11713;48.506;8.966;2023-04-23T04:13:47;3.80;;;2.30;;
23088;SDS011;11713;48.506;8.966;2023-04-23T04:16:12;2.50;;;2.20;;
23088;SDS011;11713;48.506;8.966;2023-04-23T04:18:38;2.30;;;2.10;;
23088;SDS011;11713;48.506;8.966;2023-04-23T04:21:04;2.90;;;2.60;;
23088;SDS011;11713;48.506;8.966;2023-04-23T04:23:30;4.63;;;3.60;;
23088;SDS011;11713;48.506;8.966;2023-04-23T04:25:57;3.27;;;2.97;;
23088;SDS011;11713;48.506;8.966;2023-04-23T04:28:24;2.40;;;2.20;;
23088;SDS011;11713;48.506;8.966;2023-04-23T04:30:54;3.70;;;2.20;;
23088;SDS011;11713;48.506;8.966;2023-04-23T04:33:24;3.23;;;2.30;;
23088;SDS011;11713;48.506;8.966;2023-04-23T04:35:51;3.13;;;2.67;;
23088;SDS011;11713;48.506;8.966;2023-04-23T04:38:18;4.87;;;2.33;;
23088;SDS011;11713;48.506;8.966;2023-04-23T04:40:45;5.10;;;2.70;;
23088;SDS011;11713;48.506;8.966;2023-04-23T04:43:13;3.40;;;2.63;;
23088;SDS011;11713;48.506;8.966;2023-04-23T04:48:31;3.20;;;2.40;;
23088;SDS011;11713;48.506;8.966;2023-04-23T04:50:57;2.60;;;2.40;;
23088;SDS011;11713;48.506;8.966;2023-04-23T04:53:23;3.40;;;3.10;;
23088;SDS011;11713;48.506;8.966;2023-04-23T04:55:49;4.13;;;2.53;;
23088;SDS011;11713;48.506;8.966;2023-04-23T04:58:15;2.70;;;2.50;;
23088;SDS011;11713;48.506;8.966;2023-04-23T05:00:41;4.33;;;2.80;;
23088;SDS011;11713;48.506;8.966;2023-04-23T05:03:07;3.00;;;2.70;;
23088;SDS011;11713;48.506;8.966;2023-04-23T05:05:33;4.77;;;2.67;;
23088;SDS011;11713;48.506;8.966;2023-04-23T05:07:58;2.87;;;2.57;;
23088;SDS011;11713;48.506;8.966;2023-04-23T05:10:26;2.77;;;2.27;;
23088;SDS011;11713;48.506;8.966;2023-04-23T05:12:58;3.07;;;2.43;;
23088;SDS011;11713;48.506;8.966;2023-04-23T05:15:24;5.03;;;2.50;;
23088;SDS011;11713;48.506;8.966;2023-04-23T05:17:50;3.90;;;2.50;;
23088;SDS011;11713;48.506;8.966;2023-04-23T05:20:18;2.93;;;2.57;;
23088;SDS011;11713;48.506;8.966;2023-04-23T05:22:46;3.63;;;2.50;;
23088;SDS011;11713;48.506;8.966;2023-04-23T05:25:14;4.33;;;2.77;;
23088;SDS011;11713;48.506;8.966;2023-04-23T05:27:40;3.43;;;2.50;;
23088;SDS011;11713;48.506;8.966;2023-04-23T05:30:07;2.67;;;2.47;;
23088;SDS011;11713;48.506;8.966;2023-04-23T05:32:34;5.73;;;2.60;;
23088;SDS011;11713;48.506;8.966;2023-04-23T05:35:01;3.63;;;2.43;;
23088;SDS011;11713;48.506;8.966;2023-04-23T05:37:28;3.07;;;2.50;;
23088;SDS011;11713;48.506;8.966;2023-04-23T05:39:54;4.03;;;3.67;;
23088;SDS011;11713;48.506;8.966;2023-04-23T05:42:22;3.30;;;2.70;;
23088;SDS011;11713;48.506;8.966;2023-04-23T05:44:48;2.93;;;2.20;;
23088;SDS011;11713;48.506;8.966;2023-04-23T05:47:13;3.20;;;2.50;;
23088;SDS011;11713;48.506;8.966;2023-04-23T05:49:39;2.87;;;2.43;;
23088;SDS011;11713;48.506;8.966;2023-04-23T05:52:05;3.80;;;2.67;;
23088;SDS011;11713;48.506;8.966;2023-04-23T05:54:31;2.93;;;2.40;;
23088;SDS011;11713;48.506;8.966;2023-04-23T05:56:57;3.77;;;2.20;;
23088;SDS011;11713;48.506;8.966;2023-04-23T05:59:23;2.73;;;2.30;;
23088;SDS011;11713;48.506;8.966;2023-04-23T06:01:49;2.20;;;2.00;;
23088;SDS011;11713;48.506;8.966;2023-04-23T06:04:15;2.60;;;2.07;;
23088;SDS011;11713;48.506;8.966;2023-04-23T06:06:42;1.20;;;1.10;;
23088;SDS011;11713;48.506;8.966;2023-04-23T06:09:08;1.50;;;1.40;;
23088;SDS011;11713;48.506;8.966;2023-04-23T06:11:34;1.43;;;1.20;;
23088;SDS011;11713;48.506;8.966;2023-04-23T06:14:00;1.50;;;1.40;;
23088;SDS011;11713;48.506;8.966;2023-04-23T06:16:27;1.50;;;1.40;;
23088;SDS011;11713;48.506;8.966;2023-04-23T06:18:52;2.40;;;1.33;;
23088;SDS011;11713;48.506;8.966;2023-04-23T06:21:23;2.70;;;2.03;;
23088;SDS011;11713;48.506;8.966;2023-04-23T06:23:49;3.10;;;2.03;;
23088;SDS011;11713;48.506;8.966;2023-04-23T06:26:15;2.17;;;1.90;;
23088;SDS011;11713;48.506;8.966;2023-04-23T06:28:43;1.97;;;1.50;;
23088;SDS011;11713;48.506;8.966;2023-04-23T06:31:32;1.47;;;1.37;;
23088;SDS011;11713;48.506;8.966;2023-04-23T06:33:59;1.10;;;1.00;;
23088;SDS011;11713;48.506;8.966;2023-04-23T06:36:28;1.20;;;1.10;;
23088;SDS011;11713;48.506;8.966;2023-04-23T06:38:54;1.53;;;1.20;;
23088;SDS011;11713;48.506;8.966;2023-04-23T06:41:20;1.27;;;1.17;;
23088;SDS011;11713;48.506;8.966;2023-04-23T06:43:46;1.40;;;1.30;;
23088;SDS011;11713;48.506;8.966;2023-04-23T06:46:32;2.50;;;1.83;;
23088;SDS011;11713;48.506;8.966;2023-04-23T06:48:58;1.53;;;1.10;;
23088;SDS011;11713;48.506;8.966;2023-04-23T06:51:24;1.30;;;1.20;;
23088;SDS011;11713;48.506;8.966;2023-04-23T06:53:51;1.43;;;1.00;;
23088;SDS011;11713;48.506;8.966;2023-04-23T06:56:16;1.67;;;1.10;;
23088;SDS011;11713;48.506;8.966;2023-04-23T06:58:42;1.80;;;1.23;;
23088;SDS011;11713;48.506;8.966;2023-04-23T07:01:15;1.87;;;1.20;;
23088;SDS011;11713;48.506;8.966;2023-04-23T07:03:41;1.67;;;1.57;;
23088;SDS011;11713;48.506;8.966;2023-04-23T07:06:09;1.83;;;1.03;;
23088;SDS011;11713;48.506;8.966;2023-04-23T07:08:35;1.17;;;0.90;;
23088;SDS011;11713;48.506;8.966;2023-04-23T07:11:03;1.20;;;1.07;;
23088;SDS011;11713;48.506;8.966;2023-04-23T07:13:29;1.10;;;1.00;;
23088;SDS011;11713;48.506;8.966;2023-04-23T07:15:55;1.10;;;0.90;;
23088;SDS011;11713;48.506;8.966;2023-04-23T07:18:21;1.63;;;1.00;;
23088;SDS011;11713;48.506;8.966;2023-04-23T07:20:46;1.00;;;0.90;;
23088;SDS011;11713;48.506;8.966;2023-04-23T07:23:12;0.80;;;0.80;;
23088;SDS011;11713;48.506;8.966;2023-04-23T07:25:38;1.00;;;0.90;;
23088;SDS011;11713;48.506;8.966;2023-04-23T07:28:04;1.63;;;1.00;;
23088;SDS011;11713;48.506;8.966;2023-04-23T07:30:29;0.93;;;0.80;;
23088;SDS011;11713;48.506;8.966;2023-04-23T07:32:55;1.57;;;0.87;;
23088;SDS011;11713;48.506;8.966;2023-04-23T07:35:21;0.60;;;0.60;;
23088;SDS011;11713;48.506;8.966;2023-04-23T07:37:47;1.03;;;0.80;;
23088;SDS011;11713;48.506;8.966;2023-04-23T07:40:19;0.80;;;0.80;;
23088;SDS011;11713;48.506;8.966;2023-04-23T07:42:46;1.03;;;0.77;;
23088;SDS011;11713;48.506;8.966;2023-04-23T07:45:12;0.70;;;0.70;;
23088;SDS011;11713;48.506;8.966;2023-04-23T07:47:38;1.90;;;0.90;;
23088;SDS011;11713;48.506;8.966;2023-04-23T07:50:04;1.20;;;0.80;;
23088;SDS011;11713;48.506;8.966;2023-04-23T07:52:31;1.63;;;0.80;;
23088;SDS011;11713;48.506;8.966;2023-04-23T07:54:56;0.80;;;0.80;;
23088;SDS011;11713;48.506;8.966;2023-04-23T07:57:22;1.07;;;0.80;;
23088;SDS011;11713;48.506;8.966;2023-04-23T07:59:48;1.50;;;0.80;;
23088;SDS011;11713;48.506;8.966;2023-04-23T08:02:14;0.97;;;0.80;;
23088;SDS011;11713;48.506;8.966;2023-04-23T08:04:40;0.73;;;0.73;;
23088;SDS011;11713;48.506;8.966;2023-04-23T08:07:06;1.30;;;0.93;;
23088;SDS011;11713;48.506;8.966;2023-04-23T08:09:32;1.57;;;0.97;;
23088;SDS011;11713;48.506;8.966;2023-04-23T08:11:57;1.23;;;0.90;;
23088;SDS011;11713;48.506;8.966;2023-04-23T08:14:24;0.90;;;0.83;;
23088;SDS011;11713;48.506;8.966;2023-04-23T08:16:49;0.80;;;0.70;;
23088;SDS011;11713;48.506;8.966;2023-04-23T08:19:15;1.27;;;0.80;;
23088;SDS011;11713;48.506;8.966;2023-04-23T08:21:41;1.33;;;0.60;;
23088;SDS011;11713;48.506;8.966;2023-04-23T08:24:07;0.97;;;0.90;;
23088;SDS011;11713;48.506;8.966;2023-04-23T08:26:33;0.90;;;0.90;;
23088;SDS011;11713;48.506;8.966;2023-04-23T08:28:58;1.57;;;0.80;;
23088;SDS011;11713;48.506;8.966;2023-04-23T08:31:25;0.93;;;0.87;;
23088;SDS011;11713;48.506;8.966;2023-04-23T08:33:51;1.33;;;1.00;;
23088;SDS011;11713;48.506;8.966;2023-04-23T08:36:17;2.07;;;0.80;;
23088;SDS011;11713;48.506;8.966;2023-04-23T08:38:42;2.40;;;1.00;;
23088;SDS011;11713;48.506;8.966;2023-04-23T08:41:09;1.00;;;1.00;;
23088;SDS011;11713;48.506;8.966;2023-04-23T08:43:40;0.87;;;0.87;;
23088;SDS011;11713;48.506;8.966;2023-04-23T08:46:11;1.75;;;1.00;;
23088;SDS011;11713;48.506;8.966;2023-04-23T08:48:40;1.07;;;1.00;;
23088;SDS011;11713;48.506;8.966;2023-04-23T08:51:08;1.93;;;1.83;;
23088;SDS011;11713;48.506;8.966;2023-04-23T08:53:35;0.85;;;0.85;;
23088;SDS011;11713;48.506;8.966;2023-04-23T08:56:02;1.30;;;1.00;;
23088;SDS011;11713;48.506;8.966;2023-04-23T08:58:31;1.00;;;0.82;;
23088;SDS011;11713;48.506;8.966;2023-04-23T09:00:58;2.55;;;1.00;;
23088;SDS011;11713;48.506;8.966;2023-04-23T09:03:24;0.70;;;0.70;;
23088;SDS011;11713;48.506;8.966;2023-04-23T09:05:50;1.15;;;0.90;;
23088;SDS011;11713;48.506;8.966;2023-04-23T09:08:19;1.13;;;0.90;;
23088;SDS011;11713;48.506;8.966;2023-04-23T09:10:45;2.20;;;0.80;;
23088;SDS011;11713;48.506;8.966;2023-04-23T09:13:12;0.85;;;0.80;;
23088;SDS011;11713;48.506;8.966;2023-04-23T09:15:41;1.00;;;0.90;;
23088;SDS011;11713;48.506;8.966;2023-04-23T09:18:08;1.70;;;0.90;;
23088;SDS011;11713;48.506;8.966;2023-04-23T09:20:34;0.77;;;0.70;;
23088;SDS011;11713;48.506;8.966;2023-04-23T09:23:07;0.80;;;0.80;;
23088;SDS011;11713;48.506;8.966;2023-04-23T09:25:34;0.98;;;0.90;;
23088;SDS011;11713;48.506;8.966;2023-04-23T09:28:01;1.65;;;1.00;;
23088;SDS011;11713;48.506;8.966;2023-04-23T09:30:36;1.88;;;1.00;;
23088;SDS011;11713;48.506;8.966;2023-04-23T09:33:05;1.20;;;1.10;;
23088;SDS011;11713;48.506;8.966;2023-04-23T09:35:31;1.23;;;0.95;;
23088;SDS011;11713;48.506;8.966;2023-04-23T09:38:02;1.17;;;0.90;;
23088;SDS011;11713;48.506;8.966;2023-04-23T09:40:32;1.20;;;0.88;;
23088;SDS011;11713;48.506;8.966;2023-04-23T09:42:58;2.17;;;0.98;;
23088;SDS011;11713;48.506;8.966;2023-04-23T09:45:27;0.95;;;0.85;;
23088;SDS011;11713;48.506;8.966;2023-04-23T09:47:54;1.48;;;1.02;;
23088;SDS011;11713;48.506;8.966;2023-04-23T09:50:36;0.70;;;0.70;;
23088;SDS011;11713;48.506;8.966;2023-04-23T09:53:04;1.20;;;0.98;;
23088;SDS011;11713;48.506;8.966;2023-04-23T09:55:34;1.00;;;0.90;;
23088;SDS011;11713;48.506;8.966;2023-04-23T09:58:09;2.42;;;0.85;;
23088;SDS011;11713;48.506;8.966;2023-04-23T10:00:37;1.45;;;1.10;;
23088;SDS011;11713;48.506;8.966;2023-04-23T10:03:05;1.00;;;0.85;;
23088;SDS011;11713;48.506;8.966;2023-04-23T10:05:38;1.17;;;1.08;;
23088;SDS011;11713;48.506;8.966;2023-04-23T10:08:05;1.58;;;0.85;;
23088;SDS011;11713;48.506;8.966;2023-04-23T10:10:32;1.60;;;1.50;;
23088;SDS011;11713;48.506;8.966;2023-04-23T10:12:59;2.20;;;1.00;;
23088;SDS011;11713;48.506;8.966;2023-04-23T10:15:26;2.22;;;1.20;;
23088;SDS011;11713;48.506;8.966;2023-04-23T10:17:52;1.15;;;1.05;;
23088;SDS011;11713;48.506;8.966;2023-04-23T10:20:20;1.27;;;0.90;;
23088;SDS011;11713;48.506;8.966;2023-04-23T10:22:47;0.95;;;0.90;;
23088;SDS011;11713;48.506;8.966;2023-04-23T10:25:13;0.90;;;0.90;;
23088;SDS011;11713;48.506;8.966;2023-04-23T10:27:43;0.77;;;0.77;;
23088;SDS011;11713;48.506;8.966;2023-04-23T10:30:11;1.45;;;0.82;;
23088;SDS011;11713;48.506;8.966;2023-04-23T10:32:39;1.02;;;0.82;;
23088;SDS011;11713;48.506;8.966;2023-04-23T10:35:05;0.80;;;0.80;;
23088;SDS011;11713;48.506;8.966;2023-04-23T10:37:33;1.85;;;0.90;;
23088;SDS011;11713;48.506;8.966;2023-04-23T10:40:08;0.93;;;0.88;;
23088;SDS011;11713;48.506;8.966;2023-04-23T10:42:38;0.82;;;0.82;;
23088;SDS011;11713;48.506;8.966;2023-04-23T10:45:15;0.85;;;0.85;;
23088;SDS011;11713;48.506;8.966;2023-04-23T10:47:42;1.08;;;0.98;;
23088;SDS011;11713;48.506;8.966;2023-04-23T10:50:18;0.95;;;0.93;;
23088;SDS011;11713;48.506;8.966;2023-04-23T10:52:47;0.95;;;0.70;;
23088;SDS011;11713;48.506;8.966;2023-04-23T10:55:24;0.85;;;0.70;;
23088;SDS011;11713;48.506;8.966;2023-04-23T10:57:58;4.20;;;1.10;;
23088;SDS011;11713;48.506;8.966;2023-04-23T11:00:29;0.70;;;0.70;;
23088;SDS011;11713;48.506;8.966;2023-04-23T11:06:04;1.40;;;0.90;;
23088;SDS011;11713;48.506;8.966;2023-04-23T11:08:30;2.28;;;1.23;;
23088;SDS011;11713;48.506;8.966;2023-04-23T11:11:00;0.80;;;0.80;;
23088;SDS011;11713;48.506;8.966;2023-04-23T11:13:30;1.05;;;0.98;;
23088;SDS011;11713;48.506;8.966;2023-04-23T11:16:42;0.98;;;0.80;;
23088;SDS011;11713;48.506;8.966;2023-04-23T11:19:02;1.10;;;1.05;;
23088;SDS011;11713;48.506;8.966;2023-04-23T11:24:32;0.80;;;0.80;;
23088;SDS011;11713;48.506;8.966;2023-04-23T11:27:05;1.02;;;0.93;;
23088;SDS011;11713;48.506;8.966;2023-04-23T11:29:31;2.00;;;0.95;;
23088;SDS011;11713;48.506;8.966;2023-04-23T11:31:58;0.90;;;0.90;;
23088;SDS011;11713;48.506;8.966;2023-04-23T11:34:24;0.93;;;0.90;;
23088;SDS011;11713;48.506;8.966;2023-04-23T11:36:51;3.03;;;0.80;;
23088;SDS011;11713;48.506;8.966;2023-04-23T11:39:19;1.63;;;0.90;;
23088;SDS011;11713;48.506;8.966;2023-04-23T11:41:48;0.70;;;0.70;;
23088;SDS011;11713;48.506;8.966;2023-04-23T11:44:16;0.90;;;0.90;;
23088;SDS011;11713;48.506;8.966;2023-04-23T11:46:45;1.67;;;0.90;;
23088;SDS011;11713;48.506;8.966;2023-04-23T11:49:14;1.15;;;1.05;;
23088;SDS011;11713;48.506;8.966;2023-04-23T11:51:41;1.48;;;1.00;;
23088;SDS011;11713;48.506;8.966;2023-04-23T11:54:09;1.60;;;1.00;;
23088;SDS011;11713;48.506;8.966;2023-04-23T11:56:36;2.20;;;1.23;;
23088;SDS011;11713;48.506;8.966;2023-04-23T11:59:02;0.93;;;0.77;;
23088;SDS011;11713;48.506;8.966;2023-04-23T12:01:38;1.85;;;1.00;;
23088;SDS011;11713;48.506;8.966;2023-04-23T12:04:10;0.98;;;0.98;;
23088;SDS011;11713;48.506;8.966;2023-04-23T12:06:37;1.08;;;0.98;;
23088;SDS011;11713;48.506;8.966;2023-04-23T12:09:04;1.23;;;0.95;;
23088;SDS011;11713;48.506;8.966;2023-04-23T12:11:30;1.95;;;1.05;;
23088;SDS011;11713;48.506;8.966;2023-04-23T12:13:56;1.20;;;1.10;;
23088;SDS011;11713;48.506;8.966;2023-04-23T12:16:35;1.48;;;1.00;;
23088;SDS011;11713;48.506;8.966;2023-04-23T12:19:03;1.00;;;0.90;;
23088;SDS011;11713;48.506;8.966;2023-04-23T12:21:31;0.73;;;0.73;;
23088;SDS011;11713;48.506;8.966;2023-04-23T12:23:58;1.20;;;1.10;;
23088;SDS011;11713;48.506;8.966;2023-04-23T12:26:27;2.05;;;1.02;;
23088;SDS011;11713;48.506;8.966;2023-04-23T12:28:54;2.35;;;0.90;;
23088;SDS011;11713;48.506;8.966;2023-04-23T12:31:24;1.90;;;1.20;;
23088;SDS011;11713;48.506;8.966;2023-04-23T12:36:29;2.20;;;0.90;;
23088;SDS011;11713;48.506;8.966;2023-04-23T12:41:44;1.55;;;1.00;;
23088;SDS011;11713;48.506;8.966;2023-04-23T12:44:10;0.88;;;0.82;;
23088;SDS011;11713;48.506;8.966;2023-04-23T12:46:35;1.45;;;0.75;;
23088;SDS011;11713;48.506;8.966;2023-04-23T12:49:01;1.05;;;0.95;;
23088;SDS011;11713;48.506;8.966;2023-04-23T12:51:27;1.60;;;0.93;;
23088;SDS011;11713;48.506;8.966;2023-04-23T12:53:53;1.08;;;0.90;;
23088;SDS011;11713;48.506;8.966;2023-04-23T12:56:19;2.30;;;0.90;;
23088;SDS011;11713;48.506;8.966;2023-04-23T12:58:45;1.30;;;0.82;;
23088;SDS011;11713;48.506;8.966;2023-04-23T13:01:11;1.48;;;0.98;;
23088;SDS011;11713;48.506;8.966;2023-04-23T13:03:38;1.38;;;1.00;;
23088;SDS011;11713;48.506;8.966;2023-04-23T13:06:04;0.90;;;0.90;;
23088;SDS011;11713;48.506;8.966;2023-04-23T13:08:32;2.50;;;1.00;;
23088;SDS011;11713;48.506;8.966;2023-04-23T13:10:58;0.95;;;0.95;;
23088;SDS011;11713;48.506;8.966;2023-04-23T13:13:25;1.85;;;1.00;;
23088;SDS011;11713;48.506;8.966;2023-04-23T13:15:51;1.35;;;0.85;;
23088;SDS011;11713;48.506;8.966;2023-04-23T13:18:17;1.65;;;1.05;;
23088;SDS011;11713;48.506;8.966;2023-04-23T13:20:44;1.10;;;0.90;;
23088;SDS011;11713;48.506;8.966;2023-04-23T13:23:10;0.90;;;0.90;;
23088;SDS011;11713;48.506;8.966;2023-04-23T13:25:36;3.30;;;1.00;;
23088;SDS011;11713;48.506;8.966;2023-04-23T13:28:02;1.15;;;1.05;;
23088;SDS011;11713;48.506;8.966;2023-04-23T13:30:28;2.53;;;1.10;;
23088;SDS011;11713;48.506;8.966;2023-04-23T13:32:54;2.97;;;1.02;;
23088;SDS011;11713;48.506;8.966;2023-04-23T13:35:22;3.13;;;0.90;;
23088;SDS011;11713;48.506;8.966;2023-04-23T13:37:48;1.55;;;0.80;;
23088;SDS011;11713;48.506;8.966;2023-04-23T13:40:14;2.53;;;1.10;;
23088;SDS011;11713;48.506;8.966;2023-04-23T13:42:40;1.10;;;0.98;;
23088;SDS011;11713;48.506;8.966;2023-04-23T13:45:06;2.60;;;0.90;;
23088;SDS011;11713;48.506;8.966;2023-04-23T13:47:32;1.45;;;0.90;;
23088;SDS011;11713;48.506;8.966;2023-04-23T13:49:59;1.45;;;0.80;;
23088;SDS011;11713;48.506;8.966;2023-04-23T13:52:31;1.20;;;0.90;;
23088;SDS011;11713;48.506;8.966;2023-04-23T13:54:57;2.03;;;1.20;;
23088;SDS011;11713;48.506;8.966;2023-04-23T13:57:25;2.25;;;1.10;;
23088;SDS011;11713;48.506;8.966;2023-04-23T13:59:51;1.17;;;1.00;;
23088;SDS011;11713;48.506;8.966;2023-04-23T14:02:19;1.15;;;1.00;;
23088;SDS011;11713;48.506;8.966;2023-04-23T14:04:46;1.67;;;0.82;;
23088;SDS011;11713;48.506;8.966;2023-04-23T14:07:12;1.73;;;1.00;;
23088;SDS011;11713;48.506;8.966;2023-04-23T14:09:42;1.38;;;0.85;;
23088;SDS011;11713;48.506;8.966;2023-04-23T14:12:08;1.38;;;0.98;;
23088;SDS011;11713;48.506;8.966;2023-04-23T14:14:34;1.75;;;0.98;;
23088;SDS011;11713;48.506;8.966;2023-04-23T14:17:00;1.90;;;1.20;;
23088;SDS011;11713;48.506;8.966;2023-04-23T14:19:26;2.03;;;1.08;;
23088;SDS011;11713;48.506;8.966;2023-04-23T14:21:54;3.72;;;0.98;;
23088;SDS011;11713;48.506;8.966;2023-04-23T14:24:26;2.75;;;0.82;;
23088;SDS011;11713;48.506;8.966;2023-04-23T14:26:56;1.85;;;1.10;;
23088;SDS011;11713;48.506;8.966;2023-04-23T14:29:29;1.75;;;1.00;;
23088;SDS011;11713;48.506;8.966;2023-04-23T14:32:05;4.25;;;1.35;;
23088;SDS011;11713;48.506;8.966;2023-04-23T14:34:31;2.00;;;1.20;;
23088;SDS011;11713;48.506;8.966;2023-04-23T14:37:00;1.65;;;1.20;;
23088;SDS011;11713;48.506;8.966;2023-04-23T14:39:26;3.80;;;1.10;;
23088;SDS011;11713;48.506;8.966;2023-04-23T14:41:53;1.88;;;1.20;;
23088;SDS011;11713;48.506;8.966;2023-04-23T14:44:19;1.92;;;1.40;;
23088;SDS011;11713;48.506;8.966;2023-04-23T14:46:47;1.50;;;1.00;;
23088;SDS011;11713;48.506;8.966;2023-04-23T14:49:18;2.45;;;1.20;;
23088;SDS011;11713;48.506;8.966;2023-04-23T14:51:45;1.77;;;0.95;;
23088;SDS011;11713;48.506;8.966;2023-04-23T14:54:14;2.75;;;1.00;;
23088;SDS011;11713;48.506;8.966;2023-04-23T14:56:39;4.25;;;1.38;;
23088;SDS011;11713;48.506;8.966;2023-04-23T14:59:06;3.58;;;1.52;;
23088;SDS011;11713;48.506;8.966;2023-04-23T15:01:31;7.00;;;1.90;;
23088;SDS011;11713;48.506;8.966;2023-04-23T15:03:57;3.15;;;1.30;;
23088;SDS011;11713;48.506;8.966;2023-04-23T15:06:23;2.03;;;1.00;;
23088;SDS011;11713;48.506;8.966;2023-04-23T15:08:49;1.60;;;0.90;;
23088;SDS011;11713;48.506;8.966;2023-04-23T15:11:14;1.05;;;0.93;;
23088;SDS011;11713;48.506;8.966;2023-04-23T15:16:26;2.47;;;1.63;;
23088;SDS011;11713;48.506;8.966;2023-04-23T15:18:55;2.05;;;1.30;;
23088;SDS011;11713;48.506;8.966;2023-04-23T15:21:22;1.30;;;1.15;;
23088;SDS011;11713;48.506;8.966;2023-04-23T15:23:48;2.30;;;1.20;;
23088;SDS011;11713;48.506;8.966;2023-04-23T15:26:14;1.98;;;1.20;;
23088;SDS011;11713;48.506;8.966;2023-04-23T15:28:40;2.35;;;0.90;;
23088;SDS011;11713;48.506;8.966;2023-04-23T15:31:06;2.58;;;1.45;;